Time;durP1;ratioP1;P1;durP2;ratioP2;P2;SDS_P1;SDS_P2;PMS_P1;PMS_P2;Temp;Humidity;BMP_temperature;BMP_pressure;BME280_temperature;BME280_humidity;BME280_pressure;Samples;Min_cycle;Max_cycle;Signal;HPM_P1;HPM_P2
2023/10/10 00:00:23;;;;;;;9.82;4.07;;;11.00;99.90;;;;;;8356378;28;20025;-83
2023/10/10 00:04:25;;;;;;;10.15;4.38;;;11.00;99.90;;;;;;8350148;28;20451;-84
2023/10/10 00:08:33;;;;;;;10.15;4.30;;;10.90;99.90;;;;;;8346737;28;20084;-83
2023/10/10 00:12:36;;;;;;;8.80;3.88;;;10.90;99.90;;;;;;8354637;28;20043;-83
2023/10/10 00:16:37;;;;;;;9.32;4.43;;;10.80;99.90;;;;;;8362636;28;21128;-83
2023/10/10 00:20:41;;;;;;;8.13;4.15;;;10.80;99.90;;;;;;8353620;28;20576;-83
2023/10/10 00:24:41;;;;;;;9.02;4.43;;;10.70;99.90;;;;;;8356441;28;20027;-83
2023/10/10 00:28:45;;;;;;;12.90;4.13;;;10.70;99.90;;;;;;8356070;28;20024;-83
2023/10/10 00:32:46;;;;;;;10.15;4.93;;;10.70;99.90;;;;;;8363391;28;20048;-84
2023/10/10 00:36:48;;;;;;;9.65;4.53;;;10.70;99.90;;;;;;8348264;28;20023;-83
2023/10/10 00:40:48;;;;;;;8.52;4.50;;;10.70;99.90;;;;;;8348939;28;20511;-83
2023/10/10 00:44:49;;;;;;;12.27;4.60;;;10.70;99.90;;;;;;8364441;28;20029;-84
2023/10/10 00:48:59;;;;;;;15.50;4.93;;;10.70;99.90;;;;;;8367991;28;20552;-83
2023/10/10 00:53:00;;;;;;;10.07;4.68;;;10.70;99.90;;;;;;8345271;28;20021;-83
2023/10/10 00:57:08;;;;;;;13.35;5.38;;;10.80;99.90;;;;;;8362674;28;20435;-82
2023/10/10 01:01:14;;;;;;;17.33;4.97;;;10.70;99.90;;;;;;8346217;28;20564;-83
2023/10/10 01:05:23;;;;;;;10.75;4.88;;;10.60;99.90;;;;;;8350843;28;20112;-83
2023/10/10 01:09:34;;;;;;;12.15;4.68;;;10.60;99.90;;;;;;8349553;28;20036;-83
2023/10/10 01:13:35;;;;;;;10.90;4.88;;;10.60;99.90;;;;;;8354268;28;20516;-83
2023/10/10 01:17:37;;;;;;;13.95;4.93;;;10.60;99.90;;;;;;8361214;28;20026;-83
2023/10/10 01:21:43;;;;;;;11.18;5.15;;;10.60;99.90;;;;;;8348366;28;20029;-83
2023/10/10 01:25:45;;;;;;;14.43;5.32;;;10.60;99.90;;;;;;8358507;28;20083;-83
2023/10/10 01:30:17;;;;;;;11.52;4.53;;;10.60;99.90;;;;;;8349050;28;20030;-82
2023/10/10 01:34:14;;;;;;;12.27;4.78;;;10.50;99.90;;;;;;8364529;28;20024;-83
2023/10/10 01:38:56;;;;;;;11.65;5.10;;;10.60;99.90;;;;;;8372649;28;20023;-83
2023/10/10 01:42:59;;;;;;;10.65;5.13;;;10.60;99.90;;;;;;8334726;28;20498;-83
2023/10/10 01:47:03;;;;;;;13.73;5.53;;;10.50;99.90;;;;;;8353388;28;20033;-83
2023/10/10 01:51:07;;;;;;;13.73;5.53;;;10.40;99.90;;;;;;8359975;28;20017;-84
2023/10/10 01:55:10;;;;;;;15.10;5.10;;;10.40;99.90;;;;;;8362611;28;20021;-83
2023/10/10 01:59:17;;;;;;;13.30;5.15;;;10.50;99.90;;;;;;8371865;28;20029;-83
2023/10/10 02:03:18;;;;;;;14.40;5.70;;;10.40;99.90;;;;;;8346826;28;20108;-83
2023/10/10 02:07:22;;;;;;;14.63;5.93;;;10.50;99.90;;;;;;8362654;28;20077;-83
2023/10/10 02:11:23;;;;;;;14.35;5.72;;;10.50;99.90;;;;;;8354225;28;20029;-82
2023/10/10 02:15:32;;;;;;;13.77;5.70;;;10.40;99.90;;;;;;8357442;28;20559;-83
2023/10/10 02:19:38;;;;;;;12.77;5.75;;;10.40;99.90;;;;;;8363664;28;20035;-82
2023/10/10 02:23:44;;;;;;;11.60;4.95;;;10.40;99.90;;;;;;8353778;28;20033;-82
2023/10/10 02:28:02;;;;;;;12.90;4.90;;;10.30;99.90;;;;;;8352049;28;20032;-82
2023/10/10 02:36:13;;;;;;;15.90;5.20;;;10.30;99.90;;;;;;8368774;28;20031;-82
2023/10/10 02:40:15;;;;;;;9.90;4.72;;;10.30;99.90;;;;;;8343340;28;20032;-82
2023/10/10 02:48:38;;;;;;;11.45;4.88;;;10.40;99.90;;;;;;8362310;28;20028;-82
2023/10/10 02:52:39;;;;;;;11.13;5.05;;;10.40;99.90;;;;;;8354123;28;20112;-83
2023/10/10 02:56:43;;;;;;;11.15;4.75;;;10.30;99.90;;;;;;8355560;28;20017;-83
2023/10/10 03:00:47;;;;;;;11.10;5.05;;;10.20;99.90;;;;;;8351855;28;20032;-82
2023/10/10 03:09:38;;;;;;;10.02;4.70;;;10.30;99.90;;;;;;8368786;28;20542;-83
2023/10/10 03:13:28;;;;;;;13.18;5.80;;;10.20;99.90;;;;;;8366896;28;20025;-83
2023/10/10 03:17:31;;;;;;;16.95;5.93;;;10.20;99.90;;;;;;8377311;28;20031;-83
2023/10/10 03:26:04;;;;;;;10.30;5.13;;;10.30;99.90;;;;;;8363273;28;20024;-82
2023/10/10 03:30:17;;;;;;;9.07;4.55;;;10.20;99.90;;;;;;8367912;28;20025;-83
2023/10/10 05:25:59;;;;;;;13.07;6.07;;;9.00;99.90;;;;;;8372724;28;20417;-83
2023/10/10 05:30:00;;;;;;;11.63;6.63;;;9.10;99.90;;;;;;8361714;28;20052;-83
2023/10/10 05:34:02;;;;;;;11.77;6.53;;;9.00;99.90;;;;;;8373061;28;20028;-83
2023/10/10 05:38:04;;;;;;;15.77;7.28;;;8.80;99.90;;;;;;8373236;28;20469;-83
2023/10/10 05:42:05;;;;;;;13.13;6.75;;;8.80;99.90;;;;;;8368445;28;20029;-83
2023/10/10 05:46:05;;;;;;;18.55;6.78;;;8.80;99.90;;;;;;8367174;28;20031;-83
2023/10/10 05:50:10;;;;;;;13.32;6.05;;;9.00;99.90;;;;;;8370099;28;20027;-83
2023/10/10 05:54:11;;;;;;;11.18;6.18;;;9.10;99.90;;;;;;8360991;28;20039;-83
2023/10/10 05:58:12;;;;;;;10.40;5.38;;;9.20;99.90;;;;;;8377539;28;20017;-83
2023/10/10 06:02:12;;;;;;;12.30;6.32;;;9.20;99.90;;;;;;8378694;28;20023;-83
2023/10/10 06:06:15;;;;;;;14.13;6.25;;;9.20;99.90;;;;;;8360095;28;20017;-83
2023/10/10 06:10:16;;;;;;;17.48;7.10;;;9.40;99.90;;;;;;8363659;28;20108;-83
2023/10/10 06:14:19;;;;;;;16.88;8.07;;;9.50;99.90;;;;;;8362285;28;20461;-83
2023/10/10 06:18:19;;;;;;;14.63;6.80;;;9.60;99.90;;;;;;8373516;28;20025;-83
2023/10/10 06:22:22;;;;;;;13.77;8.23;;;9.70;99.90;;;;;;8354781;28;20029;-83
2023/10/10 06:26:24;;;;;;;13.45;7.72;;;9.80;99.90;;;;;;8363466;28;20036;-84
2023/10/10 06:30:25;;;;;;;15.15;8.15;;;10.00;99.90;;;;;;8373084;28;20021;-83
2023/10/10 06:34:34;;;;;;;13.45;7.68;;;10.00;99.90;;;;;;8359749;28;20043;-84
2023/10/10 06:38:35;;;;;;;21.13;8.45;;;10.20;99.90;;;;;;8370671;28;20338;-84
2023/10/10 06:42:36;;;;;;;14.77;6.72;;;10.30;99.90;;;;;;8356837;28;20059;-84
2023/10/10 06:46:37;;;;;;;11.18;5.97;;;10.50;99.90;;;;;;8369583;28;20020;-84
2023/10/10 06:50:38;;;;;;;15.50;6.60;;;10.70;99.90;;;;;;8369394;28;20037;-83
2023/10/10 06:54:44;;;;;;;12.70;7.05;;;10.80;99.90;;;;;;8367679;28;20210;-84
2023/10/10 06:58:45;;;;;;;14.35;6.55;;;10.90;99.90;;;;;;8369712;28;20121;-84
2023/10/10 07:02:50;;;;;;;13.40;7.43;;;11.20;99.90;;;;;;8383894;28;20017;-84
2023/10/10 07:06:51;;;;;;;17.45;7.25;;;11.40;99.90;;;;;;8359007;28;20512;-84
2023/10/10 07:10:55;;;;;;;14.57;6.03;;;11.70;99.90;;;;;;8372325;28;20036;-83
2023/10/10 07:14:56;;;;;;;15.77;6.32;;;11.70;99.90;;;;;;8361926;28;20388;-83
2023/10/10 07:18:56;;;;;;;9.80;6.00;;;11.90;99.90;;;;;;8372207;28;20040;-83
2023/10/10 07:22:59;;;;;;;15.57;6.05;;;12.10;99.90;;;;;;8367349;28;20032;-83
2023/10/10 07:27:05;;;;;;;11.93;6.47;;;12.40;99.90;;;;;;8357263;28;20029;-83
2023/10/10 07:31:11;;;;;;;13.55;6.10;;;12.70;99.90;;;;;;8348781;28;20064;-85
2023/10/10 07:35:15;;;;;;;13.98;6.60;;;12.80;99.90;;;;;;8359712;28;20108;-83
2023/10/10 07:39:34;;;;;;;11.75;6.28;;;13.10;99.90;;;;;;8370405;28;20028;-84
2023/10/10 07:43:34;;;;;;;13.02;6.70;;;13.40;99.90;;;;;;8351250;28;20509;-84
2023/10/10 07:48:38;;;;;;;15.23;8.32;;;13.70;99.90;;;;;;8346221;28;20028;-83
2023/10/10 07:52:16;;;;;;;19.60;8.13;;;13.90;99.90;;;;;;8364447;28;20028;-83
2023/10/10 07:56:16;;;;;;;19.08;8.27;;;14.10;99.90;;;;;;8343403;28;20040;-87
2023/10/10 08:00:17;;;;;;;13.93;6.45;;;14.30;99.90;;;;;;8347126;28;20029;-82
2023/10/10 08:04:21;;;;;;;9.70;5.75;;;14.40;99.90;;;;;;8368615;28;20408;-82
2023/10/10 08:08:25;;;;;;;12.13;5.43;;;14.60;99.90;;;;;;8360678;28;20020;-82
2023/10/10 08:12:29;;;;;;;34.22;8.98;;;14.80;99.90;;;;;;8369270;28;20048;-81
2023/10/10 08:16:30;;;;;;;15.77;6.10;;;15.10;99.90;;;;;;8351134;28;20111;-81
2023/10/10 08:24:43;;;;;;;11.35;4.38;;;15.90;99.90;;;;;;8367549;28;20115;-82
2023/10/10 08:28:48;;;;;;;8.82;3.90;;;16.30;99.90;;;;;;8366256;28;20032;-82
2023/10/10 08:32:49;;;;;;;10.02;4.50;;;16.80;99.90;;;;;;8348756;28;20024;-82
2023/10/10 08:36:51;;;;;;;10.00;4.68;;;17.20;99.90;;;;;;8357985;28;20501;-81
2023/10/10 08:41:01;;;;;;;10.40;3.58;;;17.50;99.90;;;;;;8359155;28;20021;-82
2023/10/10 08:45:02;;;;;;;13.20;4.00;;;17.70;99.90;;;;;;8352400;28;20029;-81
2023/10/10 08:49:04;;;;;;;7.05;2.95;;;18.30;99.90;;;;;;8350495;28;20620;-81
2023/10/10 08:53:05;;;;;;;7.68;3.10;;;19.20;99.90;;;;;;8361583;28;20069;-81
2023/10/10 08:57:11;;;;;;;9.73;3.45;;;19.40;99.90;;;;;;8365937;28;20024;-81
2023/10/10 09:01:13;;;;;;;9.95;2.92;;;19.90;99.90;;;;;;8349259;28;20025;-81
2023/10/10 09:05:14;;;;;;;12.50;3.20;;;19.80;99.90;;;;;;8368616;28;20032;-81
2023/10/10 09:09:37;;;;;;;8.75;3.30;;;19.90;99.90;;;;;;8351392;28;20024;-80
2023/10/10 09:13:51;;;;;;;8.15;3.72;;;20.00;99.90;;;;;;8363882;28;20033;-81
2023/10/10 09:17:58;;;;;;;9.27;2.92;;;20.50;99.90;;;;;;8356501;28;20055;-81
2023/10/10 09:22:02;;;;;;;11.18;3.20;;;21.00;99.90;;;;;;8360166;28;20036;-81
2023/10/10 09:26:29;;;;;;;10.48;3.45;;;21.40;99.90;;;;;;8365825;28;20028;-81
2023/10/10 09:30:49;;;;;;;7.57;2.60;;;21.60;99.90;;;;;;8364480;28;20051;-81
2023/10/10 09:34:51;;;;;;;11.30;3.33;;;21.80;99.90;;;;;;8360850;28;20035;-81
2023/10/10 09:39:08;;;;;;;7.63;2.80;;;22.10;99.90;;;;;;8363924;28;20618;-81
2023/10/10 09:43:12;;;;;;;6.70;2.90;;;22.60;99.90;;;;;;8359401;28;20021;-81
2023/10/10 09:47:13;;;;;;;8.63;3.60;;;22.70;99.90;;;;;;8357621;28;20023;-81
2023/10/10 09:59:37;;;;;;;8.18;3.33;;;23.40;99.90;;;;;;8374317;28;20029;-81
2023/10/10 10:03:49;;;;;;;11.20;3.10;;;23.60;99.90;;;;;;8356725;28;20017;-81
2023/10/10 10:08:13;;;;;;;6.65;2.90;;;23.80;99.90;;;;;;8355318;28;20060;-81
2023/10/10 10:12:31;;;;;;;8.85;2.70;;;23.70;99.90;;;;;;8356036;28;20025;-81
2023/10/10 10:17:12;;;;;;;9.07;2.67;;;23.70;99.90;;;;;;8370203;28;20021;-81
2023/10/10 10:21:27;;;;;;;13.18;3.22;;;23.70;99.90;;;;;;8331822;28;20041;-81
2023/10/10 10:25:31;;;;;;;9.93;3.72;;;23.80;99.90;;;;;;8354462;28;20025;-86
2023/10/10 10:29:36;;;;;;;9.77;3.40;;;23.50;99.90;;;;;;8349044;28;20524;-87
2023/10/10 10:33:52;;;;;;;8.93;3.00;;;23.90;99.90;;;;;;8348789;28;20037;-86
2023/10/10 10:37:59;;;;;;;6.53;2.75;;;23.90;99.90;;;;;;8354557;28;20087;-87
2023/10/10 10:42:00;;;;;;;10.02;3.45;;;24.20;99.90;;;;;;8350755;28;20102;-86
2023/10/10 10:46:27;;;;;;;7.32;2.97;;;24.40;99.90;;;;;;8368323;28;20112;-86
2023/10/10 10:50:28;;;;;;;8.35;3.10;;;24.70;99.90;;;;;;8361525;28;20028;-86
2023/10/10 10:54:37;;;;;;;8.77;2.85;;;25.00;99.90;;;;;;8367186;28;20013;-86
2023/10/10 11:02:59;;;;;;;8.52;3.05;;;25.70;99.90;;;;;;8367985;28;20135;-87
2023/10/10 11:07:07;;;;;;;10.82;3.35;;;25.20;99.90;;;;;;8363700;28;20029;-87
2023/10/10 11:15:27;;;;;;;9.00;3.10;;;25.00;99.90;;;;;;8368454;28;20438;-87
2023/10/10 11:23:41;;;;;;;11.82;3.10;;;25.10;99.90;;;;;;8367833;28;20524;-87
2023/10/10 11:27:45;;;;;;;10.50;3.28;;;24.70;99.90;;;;;;8367781;28;20013;-87
2023/10/10 11:31:48;;;;;;;7.55;3.20;;;24.30;99.90;;;;;;8350582;28;20090;-88
2023/10/10 11:35:50;;;;;;;6.90;2.78;;;24.40;99.90;;;;;;8365332;28;20109;-88
2023/10/10 11:39:57;;;;;;;7.95;3.35;;;24.70;99.90;;;;;;8355032;28;20059;-88
2023/10/10 11:44:02;;;;;;;12.68;3.25;;;24.80;99.90;;;;;;8345759;28;20500;-88
2023/10/10 11:48:05;;;;;;;6.63;3.17;;;24.60;99.90;;;;;;8345338;28;20599;-87
2023/10/10 11:52:17;;;;;;;6.90;3.15;;;24.80;99.90;;;;;;8347026;28;20036;-88
2023/10/10 11:56:17;;;;;;;11.63;3.55;;;25.00;99.90;;;;;;8353534;28;20474;-88
2023/10/10 12:00:42;;;;;;;7.38;3.63;;;25.40;99.90;;;;;;8348983;28;20078;-88
2023/10/10 12:04:44;;;;;;;9.45;3.58;;;25.90;99.90;;;;;;8345564;28;20021;-89
2023/10/10 12:08:50;;;;;;;6.43;3.17;;;26.60;99.90;;;;;;8344613;28;20052;-88
2023/10/10 12:12:53;;;;;;;9.57;3.22;;;27.00;99.90;;;;;;8362382;28;20104;-88
2023/10/10 12:16:57;;;;;;;11.93;3.20;;;28.00;99.90;;;;;;8354633;28;20028;-88
2023/10/10 12:20:58;;;;;;;12.45;3.65;;;27.50;99.90;;;;;;8360017;28;20037;-88
2023/10/10 12:24:59;;;;;;;7.55;3.10;;;27.70;99.90;;;;;;8359314;28;20060;-89
2023/10/10 12:28:59;;;;;;;9.65;3.13;;;28.20;99.90;;;;;;8345682;28;20098;-88
2023/10/10 12:33:00;;;;;;;7.93;3.15;;;28.20;99.90;;;;;;8344940;28;20525;-87
2023/10/10 12:37:01;;;;;;;9.90;3.75;;;28.70;99.90;;;;;;8344975;28;20021;-88
2023/10/10 12:41:01;;;;;;;11.88;3.50;;;28.80;99.90;;;;;;8361611;28;20500;-88
2023/10/10 12:45:03;;;;;;;9.57;3.03;;;28.70;99.90;;;;;;8358783;28;20036;-88
2023/10/10 12:49:04;;;;;;;9.15;4.00;;;28.60;99.90;;;;;;8357060;28;20040;-87
2023/10/10 12:53:15;;;;;;;6.78;3.00;;;28.70;99.90;;;;;;8351185;28;20029;-88
2023/10/10 12:57:16;;;;;;;9.80;3.20;;;28.00;99.90;;;;;;8347997;28;20384;-88
2023/10/10 13:01:22;;;;;;;11.70;4.07;;;28.00;99.90;;;;;;8343599;28;20017;-88
2023/10/10 13:05:27;;;;;;;6.60;3.08;;;28.10;99.90;;;;;;8346847;28;20053;-88
2023/10/10 13:09:27;;;;;;;8.20;2.92;;;28.20;99.90;;;;;;8351192;28;20055;-88
2023/10/10 13:13:31;;;;;;;9.68;3.53;;;28.00;99.90;;;;;;8351384;28;20017;-89
2023/10/10 13:17:49;;;;;;;9.02;2.97;;;28.20;99.90;;;;;;8343818;28;20024;-88
2023/10/10 13:21:53;;;;;;;10.10;3.20;;;28.40;99.90;;;;;;8343115;28;20032;-88
2023/10/10 13:25:54;;;;;;;6.95;2.42;;;28.40;99.90;;;;;;8335033;28;20450;-88
2023/10/10 13:29:54;;;;;;;9.68;2.72;;;28.70;98.20;;;;;;8361171;28;20123;-88
2023/10/10 13:34:04;;;;;;;13.95;3.42;;;28.70;99.10;;;;;;8348820;28;20025;-89
2023/10/10 13:38:07;;;;;;;10.05;2.90;;;28.80;97.10;;;;;;8367062;28;20092;-89
2023/10/10 13:42:07;;;;;;;7.93;3.30;;;28.80;97.80;;;;;;8355854;28;20454;-89
2023/10/10 13:46:08;;;;;;;9.70;2.95;;;28.60;98.50;;;;;;8349282;28;20032;-89
2023/10/10 13:50:28;;;;;;;10.02;3.28;;;28.50;99.90;;;;;;8366796;28;20024;-89
2023/10/10 13:54:28;;;;;;;13.20;4.57;;;28.50;98.10;;;;;;8345987;28;20024;-89
2023/10/10 13:58:29;;;;;;;9.07;3.75;;;28.00;98.50;;;;;;8348903;28;20020;-89
2023/10/10 14:02:31;;;;;;;10.02;3.33;;;28.00;98.70;;;;;;8366508;28;20052;-88
2023/10/10 14:06:45;;;;;;;7.43;2.80;;;27.60;99.10;;;;;;8364683;28;20025;-88
2023/10/10 14:10:50;;;;;;;5.07;2.78;;;27.40;99.60;;;;;;8357585;28;20053;-89
2023/10/10 14:14:51;;;;;;;10.57;3.03;;;27.00;99.90;;;;;;8365883;28;20021;-89
2023/10/10 14:18:52;;;;;;;6.05;2.65;;;26.70;99.90;;;;;;8348161;28;20488;-88
2023/10/10 14:22:53;;;;;;;10.15;3.35;;;26.40;99.90;;;;;;8350846;28;20036;-89
2023/10/10 14:26:54;;;;;;;8.55;3.08;;;25.80;99.90;;;;;;8355701;28;20435;-89
2023/10/10 14:30:57;;;;;;;6.57;3.03;;;25.40;99.90;;;;;;8355628;28;20017;-89
2023/10/10 14:34:58;;;;;;;9.40;3.00;;;25.40;99.90;;;;;;8347300;28;20028;-89
2023/10/10 14:38:59;;;;;;;11.68;3.38;;;25.20;99.90;;;;;;8365715;28;20096;-88
2023/10/10 14:43:05;;;;;;;9.43;3.03;;;24.90;99.90;;;;;;8354265;28;20025;-89
2023/10/10 14:47:07;;;;;;;7.20;2.92;;;24.60;99.90;;;;;;8345390;28;20056;-89
2023/10/10 14:51:08;;;;;;;9.20;3.03;;;24.40;99.90;;;;;;8346912;28;20091;-89
2023/10/10 14:55:23;;;;;;;7.88;3.13;;;24.10;99.90;;;;;;8347278;28;20033;-89
2023/10/10 14:59:24;;;;;;;9.23;3.88;;;24.00;99.90;;;;;;8351392;28;20400;-89
2023/10/10 15:03:26;;;;;;;10.77;3.00;;;23.60;99.90;;;;;;8351889;28;20031;-89
2023/10/10 15:07:27;;;;;;;12.23;2.97;;;23.40;99.90;;;;;;8346600;28;20159;-89
2023/10/10 15:11:29;;;;;;;5.55;2.85;;;23.10;99.90;;;;;;8349922;28;20025;-89
2023/10/10 15:15:29;;;;;;;6.47;2.80;;;22.80;99.90;;;;;;8364334;28;20021;-90
2023/10/10 15:19:30;;;;;;;11.68;2.80;;;22.50;99.90;;;;;;8346020;28;20538;-88
2023/10/10 15:23:31;;;;;;;7.45;2.72;;;22.20;99.90;;;;;;8357077;28;20032;-88
2023/10/10 15:27:31;;;;;;;10.90;3.30;;;21.90;99.90;;;;;;8364305;28;20023;-87
2023/10/10 15:31:33;;;;;;;12.27;3.53;;;21.70;99.90;;;;;;8354717;28;20044;-88
2023/10/10 15:35:39;;;;;;;13.68;3.40;;;21.60;99.90;;;;;;8345599;28;20492;-88
2023/10/10 15:39:39;;;;;;;6.53;2.75;;;21.40;99.90;;;;;;8364839;28;20029;-88
2023/10/10 15:43:41;;;;;;;9.57;3.30;;;21.30;99.90;;;;;;8347890;28;20059;-87
2023/10/10 15:47:49;;;;;;;10.23;2.70;;;21.00;99.90;;;;;;8345893;28;20021;-88
2023/10/10 15:51:50;;;;;;;5.50;3.05;;;20.80;99.90;;;;;;8364984;28;20055;-88
2023/10/10 15:56:07;;;;;;;9.55;2.92;;;20.50;99.90;;;;;;8345907;28;20048;-87
2023/10/10 16:00:14;;;;;;;8.98;3.20;;;20.20;99.90;;;;;;8351904;28;20021;-87
2023/10/10 16:04:16;;;;;;;10.63;3.60;;;19.90;99.90;;;;;;8348065;28;20027;-87
2023/10/10 16:08:17;;;;;;;9.65;3.00;;;19.70;99.90;;;;;;8345324;28;20504;-88
2023/10/10 16:12:17;;;;;;;5.63;2.90;;;19.50;99.90;;;;;;8362755;28;20017;-88
2023/10/10 16:16:18;;;;;;;10.50;4.15;;;19.20;99.90;;;;;;8345241;28;20021;-88
2023/10/10 16:20:22;;;;;;;7.93;3.58;;;19.00;99.90;;;;;;8348322;28;20032;-88
2023/10/10 16:24:27;;;;;;;9.75;3.38;;;18.70;99.90;;;;;;8357667;28;20025;-88
2023/10/10 16:28:27;;;;;;;7.13;3.10;;;18.50;99.90;;;;;;8362259;28;20013;-88
2023/10/10 16:32:28;;;;;;;9.27;3.17;;;18.20;99.90;;;;;;8343898;28;20025;-87
2023/10/10 16:36:29;;;;;;;9.40;3.35;;;17.90;99.90;;;;;;8348282;28;20028;-88
2023/10/10 16:40:30;;;;;;;8.82;3.65;;;17.70;99.90;;;;;;8349617;28;20021;-88
2023/10/10 16:44:30;;;;;;;15.82;6.22;;;17.30;99.90;;;;;;8351758;28;20025;-89
2023/10/10 16:48:31;;;;;;;14.88;5.35;;;17.00;99.90;;;;;;8346587;28;20747;-87
2023/10/10 16:52:35;;;;;;;13.18;4.47;;;16.90;99.90;;;;;;8337642;28;20075;-89
2023/10/10 16:56:36;;;;;;;10.73;4.43;;;16.80;99.90;;;;;;8351095;28;20025;-89
2023/10/10 17:00:36;;;;;;;10.20;4.75;;;16.70;99.90;;;;;;8377361;28;20036;-88
2023/10/10 17:04:37;;;;;;;18.27;6.88;;;16.40;99.90;;;;;;8347723;28;20029;-88
2023/10/10 17:08:38;;;;;;;11.73;5.97;;;16.20;99.90;;;;;;8369278;28;20068;-89
2023/10/10 17:12:42;;;;;;;9.75;4.78;;;16.10;99.90;;;;;;8347073;28;20048;-89
2023/10/10 17:16:42;;;;;;;9.80;4.65;;;15.80;99.90;;;;;;8366830;28;20044;-88
2023/10/10 17:20:43;;;;;;;8.43;4.32;;;15.70;99.90;;;;;;8345018;28;20059;-89
2023/10/10 17:24:43;;;;;;;13.18;4.30;;;15.40;99.90;;;;;;8363406;28;20021;-88
2023/10/10 17:28:44;;;;;;;11.73;4.60;;;15.20;99.90;;;;;;8347434;28;20021;-88
2023/10/10 17:32:45;;;;;;;11.02;4.22;;;15.10;99.90;;;;;;8354192;28;20035;-88
2023/10/10 17:36:47;;;;;;;11.68;4.72;;;15.00;99.90;;;;;;8352562;28;20013;-88
2023/10/10 17:40:50;;;;;;;15.27;5.60;;;14.80;99.90;;;;;;8368088;28;20401;-88
2023/10/10 17:44:51;;;;;;;10.25;5.03;;;14.70;99.90;;;;;;8362769;28;20083;-88
2023/10/10 17:48:57;;;;;;;11.82;6.03;;;14.70;99.90;;;;;;8347904;28;20480;-88
2023/10/10 17:52:59;;;;;;;11.77;5.40;;;14.60;99.90;;;;;;8346325;28;20036;-87
2023/10/10 17:57:00;;;;;;;11.68;4.78;;;14.60;99.90;;;;;;8366020;28;20025;-88
2023/10/10 18:01:01;;;;;;;8.88;4.55;;;14.50;99.90;;;;;;8382195;28;20024;-88
2023/10/10 18:05:01;;;;;;;10.05;4.93;;;14.40;99.90;;;;;;8357589;28;20040;-89
2023/10/10 18:09:07;;;;;;;15.73;5.47;;;14.40;99.90;;;;;;8350861;28;20493;-88
2023/10/10 18:13:10;;;;;;;12.50;5.10;;;14.30;99.90;;;;;;8368927;28;20056;-88
2023/10/10 18:17:11;;;;;;;13.98;4.45;;;14.10;99.90;;;;;;8351456;28;20021;-87
2023/10/10 18:21:11;;;;;;;10.98;4.90;;;14.00;99.90;;;;;;8341297;28;20043;-88
2023/10/10 18:25:13;;;;;;;10.13;5.03;;;13.70;99.90;;;;;;8347019;28;20033;-88
2023/10/10 18:29:15;;;;;;;9.75;4.72;;;13.60;99.90;;;;;;8351497;28;20167;-88
2023/10/10 18:33:16;;;;;;;8.70;4.70;;;13.50;99.90;;;;;;8349787;28;20237;-88
2023/10/10 18:37:16;;;;;;;11.23;4.63;;;13.30;99.90;;;;;;8358434;28;20029;-88
2023/10/10 18:41:24;;;;;;;14.45;5.20;;;13.10;99.90;;;;;;8365604;28;20049;-88
2023/10/10 18:45:25;;;;;;;9.10;4.97;;;12.90;99.90;;;;;;8351471;28;20503;-88
2023/10/10 18:49:26;;;;;;;10.98;4.55;;;13.00;99.90;;;;;;8366255;28;20025;-88
2023/10/10 18:53:26;;;;;;;10.05;5.00;;;12.90;99.90;;;;;;8373467;28;20021;-88
2023/10/10 18:57:28;;;;;;;8.60;5.03;;;12.80;99.90;;;;;;8357675;28;20014;-88
2023/10/10 19:01:29;;;;;;;14.88;5.50;;;12.80;99.90;;;;;;8351051;28;20025;-87
2023/10/10 19:05:29;;;;;;;14.50;5.95;;;12.80;99.90;;;;;;8349452;28;20026;-88
2023/10/10 19:09:32;;;;;;;13.30;5.75;;;12.80;99.90;;;;;;8344656;28;20025;-88
2023/10/10 19:13:33;;;;;;;10.35;5.30;;;12.70;99.90;;;;;;8353904;28;20547;-88
2023/10/10 19:17:33;;;;;;;13.13;5.03;;;12.50;99.90;;;;;;8367283;28;20075;-88
2023/10/10 19:21:34;;;;;;;12.30;5.20;;;12.40;99.90;;;;;;8352734;28;20445;-87
2023/10/10 19:25:41;;;;;;;15.75;6.75;;;12.40;99.90;;;;;;8365768;28;20029;-88
2023/10/10 19:29:46;;;;;;;11.63;5.43;;;12.40;99.90;;;;;;8365062;28;20021;-88
2023/10/10 19:33:47;;;;;;;10.98;5.53;;;12.50;99.90;;;;;;8355014;28;20024;-88
2023/10/10 19:37:49;;;;;;;10.30;5.70;;;12.50;99.90;;;;;;8356321;28;20587;-88
2023/10/10 19:41:52;;;;;;;8.10;4.70;;;12.60;99.90;;;;;;8352658;28;20032;-88
2023/10/10 19:45:53;;;;;;;9.60;4.78;;;12.50;99.90;;;;;;8335995;28;20029;-88
2023/10/10 19:49:55;;;;;;;8.00;4.85;;;12.40;99.90;;;;;;8360085;28;20079;-88
2023/10/10 19:53:56;;;;;;;12.27;5.40;;;12.50;99.90;;;;;;8338843;28;20035;-88
2023/10/10 19:57:57;;;;;;;10.40;5.55;;;12.30;99.90;;;;;;8353116;28;20027;-88
2023/10/10 20:01:58;;;;;;;10.82;4.95;;;12.30;99.90;;;;;;8353511;28;20035;-88
2023/10/10 20:05:58;;;;;;;9.13;4.40;;;12.30;99.90;;;;;;8335632;28;20481;-87
2023/10/10 20:09:59;;;;;;;10.90;5.10;;;12.20;99.90;;;;;;8345747;28;20117;-87
2023/10/10 20:13:59;;;;;;;15.35;5.82;;;12.10;99.90;;;;;;8355453;28;20025;-88
2023/10/10 20:18:00;;;;;;;8.90;4.95;;;12.10;99.90;;;;;;8349406;28;20021;-88
2023/10/10 20:22:00;;;;;;;9.40;5.05;;;11.90;99.90;;;;;;8353487;28;20036;-88
2023/10/10 20:26:02;;;;;;;10.93;5.38;;;11.90;99.90;;;;;;8354577;28;20033;-87
2023/10/10 20:30:03;;;;;;;18.05;5.93;;;11.80;99.90;;;;;;8358505;28;20028;-88
2023/10/10 20:34:03;;;;;;;10.98;5.47;;;11.70;99.90;;;;;;8341129;28;20025;-87
2023/10/10 20:38:05;;;;;;;12.15;5.22;;;11.60;99.90;;;;;;8347866;28;20031;-86
2023/10/10 20:42:08;;;;;;;13.52;5.97;;;11.50;99.90;;;;;;8345783;28;20501;-88
2023/10/10 20:46:09;;;;;;;11.05;5.65;;;11.40;99.90;;;;;;8348007;28;20095;-88
2023/10/10 20:50:14;;;;;;;14.95;5.68;;;11.30;99.90;;;;;;8343999;28;20029;-88
2023/10/10 20:54:16;;;;;;;10.15;5.35;;;11.20;99.90;;;;;;8359273;28;20025;-87
2023/10/10 20:58:16;;;;;;;8.90;4.80;;;11.20;99.90;;;;;;8344455;28;20025;-87
2023/10/10 21:10:50;;;;;;;12.38;4.90;;;10.90;99.90;;;;;;9427291;23;20050;-87
2023/10/10 21:14:54;;;;;;;11.07;5.43;;;10.90;99.90;;;;;;8288555;28;20092;-87
2023/10/10 21:18:55;;;;;;;10.25;5.20;;;10.90;99.90;;;;;;8276042;28;20025;-87
2023/10/10 21:22:57;;;;;;;11.23;6.07;;;11.00;99.90;;;;;;8254600;28;20034;-86
2023/10/10 21:26:58;;;;;;;13.10;5.80;;;11.00;99.90;;;;;;8269759;28;20635;-87
2023/10/10 21:30:59;;;;;;;13.50;6.07;;;10.90;99.90;;;;;;8248269;28;20027;-86
2023/10/10 21:35:07;;;;;;;12.52;5.65;;;10.90;99.90;;;;;;8272526;28;20405;-85
2023/10/10 21:39:07;;;;;;;11.15;5.80;;;10.80;99.90;;;;;;8249190;28;20030;-85
2023/10/10 21:43:08;;;;;;;9.95;5.55;;;10.60;99.90;;;;;;8274527;28;20120;-86
2023/10/10 21:47:08;;;;;;;11.57;5.72;;;10.50;99.90;;;;;;8244579;28;20026;-86
2023/10/10 21:51:16;;;;;;;14.60;6.65;;;10.40;99.90;;;;;;8273599;28;20495;-86
2023/10/10 21:55:19;;;;;;;10.13;6.10;;;10.40;99.90;;;;;;8257437;28;20027;-86
2023/10/10 21:59:19;;;;;;;16.15;6.68;;;10.30;99.90;;;;;;8264845;28;20034;-86
2023/10/10 22:03:22;;;;;;;13.05;5.97;;;10.20;99.90;;;;;;8253842;28;20419;-86
2023/10/10 22:07:22;;;;;;;15.32;5.75;;;10.10;99.90;;;;;;8244554;28;20089;-86
2023/10/10 22:11:23;;;;;;;12.70;6.13;;;10.00;99.90;;;;;;8257848;28;20141;-86
2023/10/10 22:15:24;;;;;;;12.07;6.35;;;10.00;99.90;;;;;;8275605;28;20019;-86
2023/10/10 22:19:25;;;;;;;10.20;5.88;;;10.00;99.90;;;;;;8262688;28;20026;-86
2023/10/10 22:23:26;;;;;;;12.63;6.68;;;10.10;99.90;;;;;;8267909;28;20578;-86
2023/10/10 22:27:26;;;;;;;11.80;6.65;;;10.20;99.90;;;;;;8257345;28;20027;-86
2023/10/10 22:31:31;;;;;;;13.23;6.88;;;10.20;99.90;;;;;;8256830;28;20037;-86
2023/10/10 22:35:32;;;;;;;15.40;7.57;;;10.20;99.90;;;;;;8289095;28;20097;-86
2023/10/10 22:39:34;;;;;;;16.58;7.43;;;10.20;99.90;;;;;;8281994;28;20014;-86
2023/10/10 22:43:36;;;;;;;11.90;6.80;;;10.20;99.90;;;;;;8291673;28;20026;-86
2023/10/10 22:47:37;;;;;;;11.10;6.22;;;10.20;99.90;;;;;;8248562;28;20030;-86
2023/10/10 22:51:38;;;;;;;13.23;6.28;;;10.10;99.90;;;;;;8267487;28;20018;-86
2023/10/10 22:55:39;;;;;;;13.57;5.93;;;10.00;99.90;;;;;;8253685;28;20726;-86
2023/10/10 22:59:41;;;;;;;10.35;5.97;;;9.90;99.90;;;;;;8269127;28;20019;-86
2023/10/10 23:03:42;;;;;;;13.65;6.47;;;9.80;99.90;;;;;;8252756;28;20017;-85
2023/10/10 23:07:45;;;;;;;11.18;6.88;;;9.70;99.90;;;;;;8280630;28;20282;-86
2023/10/10 23:11:45;;;;;;;14.43;6.55;;;9.70;99.90;;;;;;8288801;28;20022;-86
2023/10/10 23:15:49;;;;;;;12.40;6.25;;;9.70;99.90;;;;;;8279805;28;20060;-86
2023/10/10 23:19:49;;;;;;;10.38;6.03;;;9.60;99.90;;;;;;8266221;28;20054;-85
2023/10/10 23:23:50;;;;;;;12.55;6.30;;;9.50;99.90;;;;;;8266494;28;20033;-85
2023/10/10 23:47:41;;;;;;;16.58;6.90;;;9.10;99.90;;;;;;8272024;28;20030;-86
2023/10/10 23:51:44;;;;;;;12.68;6.68;;;9.10;99.90;;;;;;8274628;28;20494;-86
2023/10/10 23:55:46;;;;;;;10.85;6.40;;;9.00;99.90;;;;;;8269257;28;20017;-86
2023/10/10 23:59:48;;;;;;;10.73;6.30;;;8.90;99.90;;;;;;8269433;28;20052;-85
